sensor_id;sensor_type;location;lat;lon;timestamp;temperature;humidity
65046;DHT22;54657;52.022;5.534;2023-07-02T00:01:08;19.30;86.70
65046;DHT22;54657;52.022;5.534;2023-07-02T00:03:34;19.30;86.70
65046;DHT22;54657;52.022;5.534;2023-07-02T00:05:59;19.30;86.80
65046;DHT22;54657;52.022;5.534;2023-07-02T00:08:25;19.30;86.70
65046;DHT22;54657;52.022;5.534;2023-07-02T00:10:51;19.20;86.70
65046;DHT22;54657;52.022;5.534;2023-07-02T00:13:16;18.90;86.70
65046;DHT22;54657;52.022;5.534;2023-07-02T00:15:42;18.70;87.20
65046;DHT22;54657;52.022;5.534;2023-07-02T00:18:07;18.60;87.60
65046;DHT22;54657;52.022;5.534;2023-07-02T00:20:33;18.50;87.80
65046;DHT22;54657;52.022;5.534;2023-07-02T00:23:03;18.40;88.20
65046;DHT22;54657;52.022;5.534;2023-07-02T00:25:29;18.40;88.20
65046;DHT22;54657;52.022;5.534;2023-07-02T00:27:54;18.40;88.30
65046;DHT22;54657;52.022;5.534;2023-07-02T00:30:20;18.40;88.50
65046;DHT22;54657;52.022;5.534;2023-07-02T00:32:46;18.40;88.70
65046;DHT22;54657;52.022;5.534;2023-07-02T00:35:11;18.50;88.70
65046;DHT22;54657;52.022;5.534;2023-07-02T00:37:37;18.50;88.60
65046;DHT22;54657;52.022;5.534;2023-07-02T00:40:03;18.50;88.60
65046;DHT22;54657;52.022;5.534;2023-07-02T00:42:29;18.40;88.70
65046;DHT22;54657;52.022;5.534;2023-07-02T00:44:56;18.50;88.50
65046;DHT22;54657;52.022;5.534;2023-07-02T00:47:23;18.40;88.60
65046;DHT22;54657;52.022;5.534;2023-07-02T00:49:49;18.20;88.80
65046;DHT22;54657;52.022;5.534;2023-07-02T00:52:15;18.30;89.10
65046;DHT22;54657;52.022;5.534;2023-07-02T00:54:41;18.30;88.80
65046;DHT22;54657;52.022;5.534;2023-07-02T00:57:07;18.30;89.30
65046;DHT22;54657;52.022;5.534;2023-07-02T00:59:34;18.20;88.30
65046;DHT22;54657;52.022;5.534;2023-07-02T01:02:03;18.30;88.20
65046;DHT22;54657;52.022;5.534;2023-07-02T01:04:30;18.30;88.30
65046;DHT22;54657;52.022;5.534;2023-07-02T01:06:56;18.20;88.30
65046;DHT22;54657;52.022;5.534;2023-07-02T01:09:24;18.20;88.30
65046;DHT22;54657;52.022;5.534;2023-07-02T01:12:01;18.20;88.40
65046;DHT22;54657;52.022;5.534;2023-07-02T01:14:38;18.10;88.60
65046;DHT22;54657;52.022;5.534;2023-07-02T01:17:06;18.10;88.50
65046;DHT22;54657;52.022;5.534;2023-07-02T01:22:20;18.00;88.60
65046;DHT22;54657;52.022;5.534;2023-07-02T01:24:47;18.00;88.50
65046;DHT22;54657;52.022;5.534;2023-07-02T01:27:14;17.90;88.50
65046;DHT22;54657;52.022;5.534;2023-07-02T01:29:41;18.00;88.40
65046;DHT22;54657;52.022;5.534;2023-07-02T01:32:07;17.90;88.30
65046;DHT22;54657;52.022;5.534;2023-07-02T01:34:34;17.90;88.30
65046;DHT22;54657;52.022;5.534;2023-07-02T01:37:01;17.90;88.40
65046;DHT22;54657;52.022;5.534;2023-07-02T01:39:26;17.90;88.40
65046;DHT22;54657;52.022;5.534;2023-07-02T01:41:54;17.80;88.40
65046;DHT22;54657;52.022;5.534;2023-07-02T01:44:20;17.80;88.30
65046;DHT22;54657;52.022;5.534;2023-07-02T01:46:47;17.80;88.40
65046;DHT22;54657;52.022;5.534;2023-07-02T01:49:18;17.80;88.40
65046;DHT22;54657;52.022;5.534;2023-07-02T01:51:55;17.80;88.40
65046;DHT22;54657;52.022;5.534;2023-07-02T01:54:22;17.80;88.50
65046;DHT22;54657;52.022;5.534;2023-07-02T01:56:48;17.70;88.20
65046;DHT22;54657;52.022;5.534;2023-07-02T01:59:15;17.70;88.20
65046;DHT22;54657;52.022;5.534;2023-07-02T02:01:40;17.60;88.10
65046;DHT22;54657;52.022;5.534;2023-07-02T02:04:07;17.60;88.30
65046;DHT22;54657;52.022;5.534;2023-07-02T02:06:33;17.60;88.30
65046;DHT22;54657;52.022;5.534;2023-07-02T02:08:58;17.60;89.00
65046;DHT22;54657;52.022;5.534;2023-07-02T02:11:24;17.50;88.50
65046;DHT22;54657;52.022;5.534;2023-07-02T02:13:50;17.50;88.60
65046;DHT22;54657;52.022;5.534;2023-07-02T02:16:16;17.50;88.60
65046;DHT22;54657;52.022;5.534;2023-07-02T02:18:41;17.50;88.70
65046;DHT22;54657;52.022;5.534;2023-07-02T02:21:07;17.50;88.60
65046;DHT22;54657;52.022;5.534;2023-07-02T02:23:33;17.40;88.60
65046;DHT22;54657;52.022;5.534;2023-07-02T02:25:58;17.30;88.90
65046;DHT22;54657;52.022;5.534;2023-07-02T02:28:24;17.30;89.00
65046;DHT22;54657;52.022;5.534;2023-07-02T02:30:49;17.30;89.00
65046;DHT22;54657;52.022;5.534;2023-07-02T02:33:15;17.30;89.00
65046;DHT22;54657;52.022;5.534;2023-07-02T02:35:41;17.30;88.90
65046;DHT22;54657;52.022;5.534;2023-07-02T02:38:06;17.30;88.80
65046;DHT22;54657;52.022;5.534;2023-07-02T02:40:32;17.30;88.90
65046;DHT22;54657;52.022;5.534;2023-07-02T02:42:57;17.30;88.90
65046;DHT22;54657;52.022;5.534;2023-07-02T02:45:23;17.30;88.90
65046;DHT22;54657;52.022;5.534;2023-07-02T02:47:49;17.30;89.60
65046;DHT22;54657;52.022;5.534;2023-07-02T02:50:14;17.20;89.20
65046;DHT22;54657;52.022;5.534;2023-07-02T02:52:40;17.20;89.20
65046;DHT22;54657;52.022;5.534;2023-07-02T02:55:07;17.20;89.40
65046;DHT22;54657;52.022;5.534;2023-07-02T02:57:33;17.20;89.40
65046;DHT22;54657;52.022;5.534;2023-07-02T02:59:59;17.20;89.40
65046;DHT22;54657;52.022;5.534;2023-07-02T03:02:25;17.20;89.50
65046;DHT22;54657;52.022;5.534;2023-07-02T03:04:51;17.20;89.50
65046;DHT22;54657;52.022;5.534;2023-07-02T03:07:16;17.20;89.30
65046;DHT22;54657;52.022;5.534;2023-07-02T03:09:42;17.20;89.40
65046;DHT22;54657;52.022;5.534;2023-07-02T03:12:08;17.20;89.40
65046;DHT22;54657;52.022;5.534;2023-07-02T03:14:34;17.20;89.40
65046;DHT22;54657;52.022;5.534;2023-07-02T03:16:59;17.30;89.30
65046;DHT22;54657;52.022;5.534;2023-07-02T03:19:25;17.20;89.30
65046;DHT22;54657;52.022;5.534;2023-07-02T03:21:51;17.20;89.60
65046;DHT22;54657;52.022;5.534;2023-07-02T03:24:17;17.20;89.40
65046;DHT22;54657;52.022;5.534;2023-07-02T03:26:44;17.10;89.50
65046;DHT22;54657;52.022;5.534;2023-07-02T03:29:10;17.10;89.50
65046;DHT22;54657;52.022;5.534;2023-07-02T03:31:36;17.10;89.40
65046;DHT22;54657;52.022;5.534;2023-07-02T03:34:05;17.10;89.40
65046;DHT22;54657;52.022;5.534;2023-07-02T03:36:31;17.00;89.40
65046;DHT22;54657;52.022;5.534;2023-07-02T03:38:56;17.00;90.00
65046;DHT22;54657;52.022;5.534;2023-07-02T03:41:22;17.00;89.60
65046;DHT22;54657;52.022;5.534;2023-07-02T03:43:47;17.00;89.60
65046;DHT22;54657;52.022;5.534;2023-07-02T03:46:13;17.10;89.30
65046;DHT22;54657;52.022;5.534;2023-07-02T03:48:39;17.10;89.10
65046;DHT22;54657;52.022;5.534;2023-07-02T03:51:05;17.10;89.00
65046;DHT22;54657;52.022;5.534;2023-07-02T03:53:30;17.10;88.90
65046;DHT22;54657;52.022;5.534;2023-07-02T03:55:56;17.20;88.90
65046;DHT22;54657;52.022;5.534;2023-07-02T03:58:22;17.10;88.60
65046;DHT22;54657;52.022;5.534;2023-07-02T04:00:47;17.10;88.90
65046;DHT22;54657;52.022;5.534;2023-07-02T04:03:15;17.00;88.90
65046;DHT22;54657;52.022;5.534;2023-07-02T04:05:41;16.90;88.70
65046;DHT22;54657;52.022;5.534;2023-07-02T04:08:07;16.90;89.10
65046;DHT22;54657;52.022;5.534;2023-07-02T04:10:32;16.90;89.60
65046;DHT22;54657;52.022;5.534;2023-07-02T04:12:58;17.00;88.80
65046;DHT22;54657;52.022;5.534;2023-07-02T04:15:24;16.90;88.50
65046;DHT22;54657;52.022;5.534;2023-07-02T04:17:51;17.00;88.50
65046;DHT22;54657;52.022;5.534;2023-07-02T04:20:16;17.00;88.50
65046;DHT22;54657;52.022;5.534;2023-07-02T04:22:44;16.90;88.50
65046;DHT22;54657;52.022;5.534;2023-07-02T04:25:11;16.90;88.60
65046;DHT22;54657;52.022;5.534;2023-07-02T04:27:36;16.90;88.50
65046;DHT22;54657;52.022;5.534;2023-07-02T04:30:02;17.00;88.40
65046;DHT22;54657;52.022;5.534;2023-07-02T04:32:28;17.00;88.20
65046;DHT22;54657;52.022;5.534;2023-07-02T04:34:54;17.00;88.00
65046;DHT22;54657;52.022;5.534;2023-07-02T04:37:19;17.10;88.00
65046;DHT22;54657;52.022;5.534;2023-07-02T04:39:47;17.20;87.50
65046;DHT22;54657;52.022;5.534;2023-07-02T04:42:12;17.30;87.20
65046;DHT22;54657;52.022;5.534;2023-07-02T04:44:38;17.30;87.20
65046;DHT22;54657;52.022;5.534;2023-07-02T04:47:04;17.40;87.20
65046;DHT22;54657;52.022;5.534;2023-07-02T04:49:30;17.40;86.90
65046;DHT22;54657;52.022;5.534;2023-07-02T04:51:55;17.50;86.70
65046;DHT22;54657;52.022;5.534;2023-07-02T04:54:21;17.50;87.00
65046;DHT22;54657;52.022;5.534;2023-07-02T04:56:47;17.60;86.80
65046;DHT22;54657;52.022;5.534;2023-07-02T04:59:14;17.60;86.40
65046;DHT22;54657;52.022;5.534;2023-07-02T05:01:39;17.60;86.40
65046;DHT22;54657;52.022;5.534;2023-07-02T05:04:06;17.60;86.40
65046;DHT22;54657;52.022;5.534;2023-07-02T05:06:31;17.70;86.40
65046;DHT22;54657;52.022;5.534;2023-07-02T05:08:57;17.70;86.20
65046;DHT22;54657;52.022;5.534;2023-07-02T05:11:22;17.70;86.10
65046;DHT22;54657;52.022;5.534;2023-07-02T05:13:48;17.70;85.90
65046;DHT22;54657;52.022;5.534;2023-07-02T05:16:14;17.70;85.90
65046;DHT22;54657;52.022;5.534;2023-07-02T05:18:40;17.70;86.10
65046;DHT22;54657;52.022;5.534;2023-07-02T05:21:06;17.70;85.90
65046;DHT22;54657;52.022;5.534;2023-07-02T05:23:32;17.70;85.90
65046;DHT22;54657;52.022;5.534;2023-07-02T05:25:57;17.70;85.90
65046;DHT22;54657;52.022;5.534;2023-07-02T05:28:24;17.60;86.00
65046;DHT22;54657;52.022;5.534;2023-07-02T05:30:50;17.70;86.20
65046;DHT22;54657;52.022;5.534;2023-07-02T05:33:15;17.70;86.10
65046;DHT22;54657;52.022;5.534;2023-07-02T05:35:41;17.60;85.90
65046;DHT22;54657;52.022;5.534;2023-07-02T05:38:07;17.60;85.90
65046;DHT22;54657;52.022;5.534;2023-07-02T05:40:32;17.50;85.80
65046;DHT22;54657;52.022;5.534;2023-07-02T05:42:58;17.50;85.80
65046;DHT22;54657;52.022;5.534;2023-07-02T05:45:23;17.50;85.90
65046;DHT22;54657;52.022;5.534;2023-07-02T05:47:49;17.50;85.70
65046;DHT22;54657;52.022;5.534;2023-07-02T05:50:15;17.50;85.60
65046;DHT22;54657;52.022;5.534;2023-07-02T05:52:40;17.60;85.50
65046;DHT22;54657;52.022;5.534;2023-07-02T05:55:08;17.60;85.40
65046;DHT22;54657;52.022;5.534;2023-07-02T05:57:36;17.60;85.30
65046;DHT22;54657;52.022;5.534;2023-07-02T06:00:03;17.60;85.30
65046;DHT22;54657;52.022;5.534;2023-07-02T06:02:29;17.70;85.30
65046;DHT22;54657;52.022;5.534;2023-07-02T06:04:55;17.70;85.00
65046;DHT22;54657;52.022;5.534;2023-07-02T06:07:20;17.70;84.90
65046;DHT22;54657;52.022;5.534;2023-07-02T06:09:46;17.70;85.00
65046;DHT22;54657;52.022;5.534;2023-07-02T06:12:12;17.70;85.10
65046;DHT22;54657;52.022;5.534;2023-07-02T06:14:37;17.70;85.00
65046;DHT22;54657;52.022;5.534;2023-07-02T06:17:03;17.70;84.80
65046;DHT22;54657;52.022;5.534;2023-07-02T06:19:31;17.80;84.90
65046;DHT22;54657;52.022;5.534;2023-07-02T06:21:57;17.80;84.50
65046;DHT22;54657;52.022;5.534;2023-07-02T06:24:23;17.90;84.60
65046;DHT22;54657;52.022;5.534;2023-07-02T06:26:49;18.00;84.20
65046;DHT22;54657;52.022;5.534;2023-07-02T06:29:14;18.00;84.10
65046;DHT22;54657;52.022;5.534;2023-07-02T06:31:40;18.10;83.90
65046;DHT22;54657;52.022;5.534;2023-07-02T06:34:05;18.20;83.80
65046;DHT22;54657;52.022;5.534;2023-07-02T06:36:33;18.20;83.50
65046;DHT22;54657;52.022;5.534;2023-07-02T06:38:58;18.40;83.40
65046;DHT22;54657;52.022;5.534;2023-07-02T06:41:24;18.50;83.30
65046;DHT22;54657;52.022;5.534;2023-07-02T06:43:49;18.60;83.10
65046;DHT22;54657;52.022;5.534;2023-07-02T06:46:15;18.60;82.60
65046;DHT22;54657;52.022;5.534;2023-07-02T06:48:40;18.60;82.90
65046;DHT22;54657;52.022;5.534;2023-07-02T06:51:06;18.60;82.80
65046;DHT22;54657;52.022;5.534;2023-07-02T06:53:33;18.60;82.70
65046;DHT22;54657;52.022;5.534;2023-07-02T06:55:58;18.60;82.60
65046;DHT22;54657;52.022;5.534;2023-07-02T06:58:24;18.60;82.80
65046;DHT22;54657;52.022;5.534;2023-07-02T07:00:50;18.60;82.80
65046;DHT22;54657;52.022;5.534;2023-07-02T07:03:16;18.60;82.60
65046;DHT22;54657;52.022;5.534;2023-07-02T07:05:41;18.60;82.60
65046;DHT22;54657;52.022;5.534;2023-07-02T07:08:07;18.70;82.30
65046;DHT22;54657;52.022;5.534;2023-07-02T07:10:33;18.70;81.80
65046;DHT22;54657;52.022;5.534;2023-07-02T07:13:03;18.80;81.60
65046;DHT22;54657;52.022;5.534;2023-07-02T07:15:34;18.90;81.40
65046;DHT22;54657;52.022;5.534;2023-07-02T07:18:02;19.00;81.50
65046;DHT22;54657;52.022;5.534;2023-07-02T07:20:28;19.00;81.10
65046;DHT22;54657;52.022;5.534;2023-07-02T07:22:54;19.10;80.70
65046;DHT22;54657;52.022;5.534;2023-07-02T07:25:20;19.20;80.40
65046;DHT22;54657;52.022;5.534;2023-07-02T07:27:45;19.10;79.70
65046;DHT22;54657;52.022;5.534;2023-07-02T07:30:11;19.30;80.30
65046;DHT22;54657;52.022;5.534;2023-07-02T07:32:37;19.40;79.50
65046;DHT22;54657;52.022;5.534;2023-07-02T07:35:03;19.50;79.80
65046;DHT22;54657;52.022;5.534;2023-07-02T07:37:28;19.70;78.90
65046;DHT22;54657;52.022;5.534;2023-07-02T07:39:54;19.70;78.00
65046;DHT22;54657;52.022;5.534;2023-07-02T07:42:20;19.90;78.20
65046;DHT22;54657;52.022;5.534;2023-07-02T07:44:46;19.90;77.60
65046;DHT22;54657;52.022;5.534;2023-07-02T07:47:12;19.90;77.50
65046;DHT22;54657;52.022;5.534;2023-07-02T07:49:37;19.80;77.70
65046;DHT22;54657;52.022;5.534;2023-07-02T07:52:03;19.70;77.70
65046;DHT22;54657;52.022;5.534;2023-07-02T07:54:32;19.60;77.80
65046;DHT22;54657;52.022;5.534;2023-07-02T07:56:58;19.60;77.80
65046;DHT22;54657;52.022;5.534;2023-07-02T07:59:23;19.70;77.70
65046;DHT22;54657;52.022;5.534;2023-07-02T08:01:49;19.70;76.90
65046;DHT22;54657;52.022;5.534;2023-07-02T08:04:15;19.80;76.20
65046;DHT22;54657;52.022;5.534;2023-07-02T08:06:40;19.70;75.90
65046;DHT22;54657;52.022;5.534;2023-07-02T08:09:06;19.70;75.40
65046;DHT22;54657;52.022;5.534;2023-07-02T08:11:31;19.60;75.80
65046;DHT22;54657;52.022;5.534;2023-07-02T08:13:57;19.60;75.70
65046;DHT22;54657;52.022;5.534;2023-07-02T08:16:23;19.70;76.40
65046;DHT22;54657;52.022;5.534;2023-07-02T08:18:48;19.70;76.00
65046;DHT22;54657;52.022;5.534;2023-07-02T08:21:14;19.90;75.40
65046;DHT22;54657;52.022;5.534;2023-07-02T08:23:42;20.00;74.50
65046;DHT22;54657;52.022;5.534;2023-07-02T08:26:08;20.10;74.10
65046;DHT22;54657;52.022;5.534;2023-07-02T08:28:36;19.90;73.50
65046;DHT22;54657;52.022;5.534;2023-07-02T08:31:01;19.90;73.60
65046;DHT22;54657;52.022;5.534;2023-07-02T08:33:27;19.80;74.10
65046;DHT22;54657;52.022;5.534;2023-07-02T08:35:52;19.70;74.00
65046;DHT22;54657;52.022;5.534;2023-07-02T08:38:18;19.70;73.90
65046;DHT22;54657;52.022;5.534;2023-07-02T08:40:44;19.70;73.70
65046;DHT22;54657;52.022;5.534;2023-07-02T08:43:09;19.60;73.90
65046;DHT22;54657;52.022;5.534;2023-07-02T08:45:35;19.70;73.80
65046;DHT22;54657;52.022;5.534;2023-07-02T08:48:01;19.80;73.00
65046;DHT22;54657;52.022;5.534;2023-07-02T08:50:27;19.80;72.60
65046;DHT22;54657;52.022;5.534;2023-07-02T08:52:54;19.90;72.80
65046;DHT22;54657;52.022;5.534;2023-07-02T08:55:19;20.10;72.80
65046;DHT22;54657;52.022;5.534;2023-07-02T08:57:54;20.20;72.40
65046;DHT22;54657;52.022;5.534;2023-07-02T09:00:19;20.30;70.30
65046;DHT22;54657;52.022;5.534;2023-07-02T09:02:46;20.40;71.80
65046;DHT22;54657;52.022;5.534;2023-07-02T09:05:12;20.40;71.60
65046;DHT22;54657;52.022;5.534;2023-07-02T09:07:49;20.30;71.40
65046;DHT22;54657;52.022;5.534;2023-07-02T09:10:28;20.20;69.20
65046;DHT22;54657;52.022;5.534;2023-07-02T09:13:05;20.20;69.80
65046;DHT22;54657;52.022;5.534;2023-07-02T09:15:40;20.10;69.20
65046;DHT22;54657;52.022;5.534;2023-07-02T09:18:20;20.20;67.50
65046;DHT22;54657;52.022;5.534;2023-07-02T09:20:46;20.20;66.50
65046;DHT22;54657;52.022;5.534;2023-07-02T09:23:12;20.10;70.70
65046;DHT22;54657;52.022;5.534;2023-07-02T09:25:38;20.10;69.50
65046;DHT22;54657;52.022;5.534;2023-07-02T09:28:22;20.20;69.90
65046;DHT22;54657;52.022;5.534;2023-07-02T09:30:57;20.20;64.20
65046;DHT22;54657;52.022;5.534;2023-07-02T09:33:27;20.50;69.60
65046;DHT22;54657;52.022;5.534;2023-07-02T09:35:53;20.60;68.00
65046;DHT22;54657;52.022;5.534;2023-07-02T09:38:20;20.60;67.60
65046;DHT22;54657;52.022;5.534;2023-07-02T09:40:48;20.60;67.30
65046;DHT22;54657;52.022;5.534;2023-07-02T09:43:15;20.60;68.00
65046;DHT22;54657;52.022;5.534;2023-07-02T09:45:43;20.70;68.30
65046;DHT22;54657;52.022;5.534;2023-07-02T09:48:13;20.60;67.20
65046;DHT22;54657;52.022;5.534;2023-07-02T09:50:44;20.50;67.30
65046;DHT22;54657;52.022;5.534;2023-07-02T09:53:10;20.40;67.10
65046;DHT22;54657;52.022;5.534;2023-07-02T09:55:37;20.20;67.00
65046;DHT22;54657;52.022;5.534;2023-07-02T09:58:03;20.20;66.90
65046;DHT22;54657;52.022;5.534;2023-07-02T10:00:29;20.20;67.30
65046;DHT22;54657;52.022;5.534;2023-07-02T10:02:55;20.40;67.10
65046;DHT22;54657;52.022;5.534;2023-07-02T10:05:33;20.50;66.60
65046;DHT22;54657;52.022;5.534;2023-07-02T10:08:14;20.60;64.70
65046;DHT22;54657;52.022;5.534;2023-07-02T10:10:42;20.70;64.80
65046;DHT22;54657;52.022;5.534;2023-07-02T10:13:07;20.80;65.40
65046;DHT22;54657;52.022;5.534;2023-07-02T10:15:33;21.00;64.90
65046;DHT22;54657;52.022;5.534;2023-07-02T10:18:03;21.00;65.10
65046;DHT22;54657;52.022;5.534;2023-07-02T10:20:40;21.10;64.50
65046;DHT22;54657;52.022;5.534;2023-07-02T10:23:07;21.20;62.00
65046;DHT22;54657;52.022;5.534;2023-07-02T10:25:34;21.30;64.00
65046;DHT22;54657;52.022;5.534;2023-07-02T10:28:22;21.20;63.40
65046;DHT22;54657;52.022;5.534;2023-07-02T10:30:52;21.20;60.20
65046;DHT22;54657;52.022;5.534;2023-07-02T10:33:19;21.10;63.30
65046;DHT22;54657;52.022;5.534;2023-07-02T10:35:46;21.10;62.90
65046;DHT22;54657;52.022;5.534;2023-07-02T10:38:15;21.10;62.70
65046;DHT22;54657;52.022;5.534;2023-07-02T10:40:42;21.10;61.80
65046;DHT22;54657;52.022;5.534;2023-07-02T10:43:08;21.20;62.10
65046;DHT22;54657;52.022;5.534;2023-07-02T10:45:34;21.10;61.40
65046;DHT22;54657;52.022;5.534;2023-07-02T10:48:07;21.10;61.80
65046;DHT22;54657;52.022;5.534;2023-07-02T10:50:34;21.10;60.80
65046;DHT22;54657;52.022;5.534;2023-07-02T10:52:59;21.10;60.10
65046;DHT22;54657;52.022;5.534;2023-07-02T10:55:26;21.20;61.00
65046;DHT22;54657;52.022;5.534;2023-07-02T10:58:09;21.30;60.30
65046;DHT22;54657;52.022;5.534;2023-07-02T11:00:49;21.50;55.10
65046;DHT22;54657;52.022;5.534;2023-07-02T11:03:18;21.70;54.90
65046;DHT22;54657;52.022;5.534;2023-07-02T11:05:48;21.60;60.20
65046;DHT22;54657;52.022;5.534;2023-07-02T11:08:14;21.40;60.30
65046;DHT22;54657;52.022;5.534;2023-07-02T11:10:40;21.30;60.30
65046;DHT22;54657;52.022;5.534;2023-07-02T11:13:21;21.40;60.50
65046;DHT22;54657;52.022;5.534;2023-07-02T11:15:47;21.60;58.10
65046;DHT22;54657;52.022;5.534;2023-07-02T11:18:14;21.60;60.00
65046;DHT22;54657;52.022;5.534;2023-07-02T11:20:42;21.60;59.70
65046;DHT22;54657;52.022;5.534;2023-07-02T11:23:24;21.70;59.20
65046;DHT22;54657;52.022;5.534;2023-07-02T11:25:57;21.70;54.80
65046;DHT22;54657;52.022;5.534;2023-07-02T11:28:23;21.60;58.20
65046;DHT22;54657;52.022;5.534;2023-07-02T11:30:49;21.60;58.90
65046;DHT22;54657;52.022;5.534;2023-07-02T11:33:15;21.60;58.60
65046;DHT22;54657;52.022;5.534;2023-07-02T11:35:40;21.60;58.50
65046;DHT22;54657;52.022;5.534;2023-07-02T11:38:09;21.70;58.50
65046;DHT22;54657;52.022;5.534;2023-07-02T11:40:36;21.90;59.00
65046;DHT22;54657;52.022;5.534;2023-07-02T11:43:01;21.90;57.90
65046;DHT22;54657;52.022;5.534;2023-07-02T11:45:27;21.90;57.70
65046;DHT22;54657;52.022;5.534;2023-07-02T11:47:54;21.90;57.80
65046;DHT22;54657;52.022;5.534;2023-07-02T11:50:19;21.90;57.60
65046;DHT22;54657;52.022;5.534;2023-07-02T11:52:45;22.00;57.80
65046;DHT22;54657;52.022;5.534;2023-07-02T11:55:11;21.90;57.50
65046;DHT22;54657;52.022;5.534;2023-07-02T11:57:37;21.90;56.70
65046;DHT22;54657;52.022;5.534;2023-07-02T12:00:04;21.90;56.90
65046;DHT22;54657;52.022;5.534;2023-07-02T12:02:29;21.90;56.40
65046;DHT22;54657;52.022;5.534;2023-07-02T12:04:55;21.90;57.00
65046;DHT22;54657;52.022;5.534;2023-07-02T12:07:20;21.80;56.90
65046;DHT22;54657;52.022;5.534;2023-07-02T12:09:46;21.90;56.70
65046;DHT22;54657;52.022;5.534;2023-07-02T12:12:13;21.90;56.70
65046;DHT22;54657;52.022;5.534;2023-07-02T12:14:38;21.90;56.20
65046;DHT22;54657;52.022;5.534;2023-07-02T12:17:08;21.80;56.50
65046;DHT22;54657;52.022;5.534;2023-07-02T12:19:34;21.70;56.50
65046;DHT22;54657;52.022;5.534;2023-07-02T12:21:59;21.60;56.30
65046;DHT22;54657;52.022;5.534;2023-07-02T12:24:25;21.60;55.90
65046;DHT22;54657;52.022;5.534;2023-07-02T12:26:50;21.60;56.40
65046;DHT22;54657;52.022;5.534;2023-07-02T12:29:16;21.50;56.00
65046;DHT22;54657;52.022;5.534;2023-07-02T12:31:42;21.50;56.90
65046;DHT22;54657;52.022;5.534;2023-07-02T12:34:07;21.60;56.20
65046;DHT22;54657;52.022;5.534;2023-07-02T12:36:33;21.70;56.50
65046;DHT22;54657;52.022;5.534;2023-07-02T12:38:58;21.90;56.10
65046;DHT22;54657;52.022;5.534;2023-07-02T12:41:24;22.10;55.40
65046;DHT22;54657;52.022;5.534;2023-07-02T12:43:50;22.30;55.60
65046;DHT22;54657;52.022;5.534;2023-07-02T12:46:15;22.30;55.30
65046;DHT22;54657;52.022;5.534;2023-07-02T12:48:41;22.40;55.30
65046;DHT22;54657;52.022;5.534;2023-07-02T12:51:06;22.50;55.30
65046;DHT22;54657;52.022;5.534;2023-07-02T12:53:32;22.40;55.00
65046;DHT22;54657;52.022;5.534;2023-07-02T12:55:57;22.20;55.20
65046;DHT22;54657;52.022;5.534;2023-07-02T12:58:23;22.10;55.70
65046;DHT22;54657;52.022;5.534;2023-07-02T13:00:49;22.30;55.60
65046;DHT22;54657;52.022;5.534;2023-07-02T13:03:16;22.40;55.30
65046;DHT22;54657;52.022;5.534;2023-07-02T13:05:42;22.50;54.70
65046;DHT22;54657;52.022;5.534;2023-07-02T13:08:09;22.40;55.20
65046;DHT22;54657;52.022;5.534;2023-07-02T13:10:35;22.40;55.10
65046;DHT22;54657;52.022;5.534;2023-07-02T13:13:01;22.30;54.50
65046;DHT22;54657;52.022;5.534;2023-07-02T13:15:26;22.30;54.60
65046;DHT22;54657;52.022;5.534;2023-07-02T13:17:52;22.20;54.80
65046;DHT22;54657;52.022;5.534;2023-07-02T13:20:18;22.20;55.10
65046;DHT22;54657;52.022;5.534;2023-07-02T13:22:43;22.30;55.10
65046;DHT22;54657;52.022;5.534;2023-07-02T13:25:09;22.50;55.10
65046;DHT22;54657;52.022;5.534;2023-07-02T13:27:35;22.60;55.20
65046;DHT22;54657;52.022;5.534;2023-07-02T13:30:01;22.60;55.00
65046;DHT22;54657;52.022;5.534;2023-07-02T13:32:27;22.60;54.40
65046;DHT22;54657;52.022;5.534;2023-07-02T13:34:53;22.60;54.50
65046;DHT22;54657;52.022;5.534;2023-07-02T13:37:18;22.70;54.30
65046;DHT22;54657;52.022;5.534;2023-07-02T13:39:48;22.70;54.30
65046;DHT22;54657;52.022;5.534;2023-07-02T13:42:14;22.80;54.30
65046;DHT22;54657;52.022;5.534;2023-07-02T13:44:41;22.90;54.30
65046;DHT22;54657;52.022;5.534;2023-07-02T13:47:07;22.90;53.70
65046;DHT22;54657;52.022;5.534;2023-07-02T13:49:33;22.90;53.70
65046;DHT22;54657;52.022;5.534;2023-07-02T13:51:58;22.80;54.10
65046;DHT22;54657;52.022;5.534;2023-07-02T13:54:24;22.80;54.20
65046;DHT22;54657;52.022;5.534;2023-07-02T13:56:50;22.60;54.30
65046;DHT22;54657;52.022;5.534;2023-07-02T13:59:17;22.50;54.50
65046;DHT22;54657;52.022;5.534;2023-07-02T14:01:43;22.60;54.00
65046;DHT22;54657;52.022;5.534;2023-07-02T14:04:09;22.60;54.30
65046;DHT22;54657;52.022;5.534;2023-07-02T14:06:35;22.60;54.20
65046;DHT22;54657;52.022;5.534;2023-07-02T14:09:00;22.60;54.40
65046;DHT22;54657;52.022;5.534;2023-07-02T14:11:26;22.70;54.30
65046;DHT22;54657;52.022;5.534;2023-07-02T14:13:53;22.80;54.20
65046;DHT22;54657;52.022;5.534;2023-07-02T14:16:19;22.80;53.70
65046;DHT22;54657;52.022;5.534;2023-07-02T14:18:45;22.60;53.80
65046;DHT22;54657;52.022;5.534;2023-07-02T14:21:11;22.60;54.20
65046;DHT22;54657;52.022;5.534;2023-07-02T14:23:36;22.50;53.90
65046;DHT22;54657;52.022;5.534;2023-07-02T14:26:02;22.50;53.90
65046;DHT22;54657;52.022;5.534;2023-07-02T14:28:27;22.50;53.60
65046;DHT22;54657;52.022;5.534;2023-07-02T14:31:03;22.30;53.40
65046;DHT22;54657;52.022;5.534;2023-07-02T14:33:30;22.20;52.00
65046;DHT22;54657;52.022;5.534;2023-07-02T14:35:56;22.10;54.20
65046;DHT22;54657;52.022;5.534;2023-07-02T14:38:22;22.20;54.00
65046;DHT22;54657;52.022;5.534;2023-07-02T14:40:49;22.20;53.70
65046;DHT22;54657;52.022;5.534;2023-07-02T14:43:15;22.20;53.30
65046;DHT22;54657;52.022;5.534;2023-07-02T14:45:52;22.20;53.70
65046;DHT22;54657;52.022;5.534;2023-07-02T14:48:18;22.10;51.90
65046;DHT22;54657;52.022;5.534;2023-07-02T14:50:45;22.00;52.80
65046;DHT22;54657;52.022;5.534;2023-07-02T14:53:11;22.00;52.90
65046;DHT22;54657;52.022;5.534;2023-07-02T14:55:37;22.00;52.70
65046;DHT22;54657;52.022;5.534;2023-07-02T14:58:02;22.10;52.60
65046;DHT22;54657;52.022;5.534;2023-07-02T15:00:28;22.10;52.20
65046;DHT22;54657;52.022;5.534;2023-07-02T15:02:53;22.10;52.10
65046;DHT22;54657;52.022;5.534;2023-07-02T15:05:19;22.10;51.80
65046;DHT22;54657;52.022;5.534;2023-07-02T15:07:44;22.00;51.60
65046;DHT22;54657;52.022;5.534;2023-07-02T15:10:10;21.90;52.10
65046;DHT22;54657;52.022;5.534;2023-07-02T15:12:35;21.90;51.70
65046;DHT22;54657;52.022;5.534;2023-07-02T15:15:02;21.90;51.60
65046;DHT22;54657;52.022;5.534;2023-07-02T15:17:28;21.80;51.60
65046;DHT22;54657;52.022;5.534;2023-07-02T15:19:53;21.80;51.50
65046;DHT22;54657;52.022;5.534;2023-07-02T15:22:19;21.80;51.50
65046;DHT22;54657;52.022;5.534;2023-07-02T15:24:44;21.90;51.50
65046;DHT22;54657;52.022;5.534;2023-07-02T15:27:10;21.90;51.80
65046;DHT22;54657;52.022;5.534;2023-07-02T15:29:35;21.90;51.40